sensor_id;sensor_type;location;lat;lon;timestamp;temperature;humidity
80579;SHT31;69939;52.402;6.608;2023-07-13T00:01:41;15.55;83.34
80579;SHT31;69939;52.402;6.608;2023-07-13T00:04:11;15.48;83.69
80579;SHT31;69939;52.402;6.608;2023-07-13T00:06:43;15.51;83.70
80579;SHT31;69939;52.402;6.608;2023-07-13T00:09:14;15.51;83.83
80579;SHT31;69939;52.402;6.608;2023-07-13T00:11:45;15.46;84.36
80579;SHT31;69939;52.402;6.608;2023-07-13T00:14:23;15.41;84.53
80579;SHT31;69939;52.402;6.608;2023-07-13T00:16:54;15.38;84.74
80579;SHT31;69939;52.402;6.608;2023-07-13T00:19:26;15.34;85.24
80579;SHT31;69939;52.402;6.608;2023-07-13T00:21:55;15.31;85.16
80579;SHT31;69939;52.402;6.608;2023-07-13T00:24:26;15.30;86.06
80579;SHT31;69939;52.402;6.608;2023-07-13T00:26:56;15.24;85.92
80579;SHT31;69939;52.402;6.608;2023-07-13T00:29:31;15.23;85.99
80579;SHT31;69939;52.402;6.608;2023-07-13T00:32:03;15.17;86.10
80579;SHT31;69939;52.402;6.608;2023-07-13T00:34:34;15.11;86.57
80579;SHT31;69939;52.402;6.608;2023-07-13T00:37:05;15.11;86.14
80579;SHT31;69939;52.402;6.608;2023-07-13T00:39:36;15.11;86.07
80579;SHT31;69939;52.402;6.608;2023-07-13T00:42:08;15.17;86.01
80579;SHT31;69939;52.402;6.608;2023-07-13T00:44:41;15.24;85.54
80579;SHT31;69939;52.402;6.608;2023-07-13T00:47:10;15.29;85.90
80579;SHT31;69939;52.402;6.608;2023-07-13T00:49:40;15.37;85.71
80579;SHT31;69939;52.402;6.608;2023-07-13T00:52:09;15.44;85.51
80579;SHT31;69939;52.402;6.608;2023-07-13T00:54:41;15.50;85.26
80579;SHT31;69939;52.402;6.608;2023-07-13T00:57:19;15.54;85.33
80579;SHT31;69939;52.402;6.608;2023-07-13T00:59:55;15.54;85.38
80579;SHT31;69939;52.402;6.608;2023-07-13T01:02:30;15.51;85.50
80579;SHT31;69939;52.402;6.608;2023-07-13T01:05:00;15.50;85.98
80579;SHT31;69939;52.402;6.608;2023-07-13T01:07:31;15.43;86.22
80579;SHT31;69939;52.402;6.608;2023-07-13T01:10:02;15.41;85.81
80579;SHT31;69939;52.402;6.608;2023-07-13T01:12:32;15.36;86.01
80579;SHT31;69939;52.402;6.608;2023-07-13T01:18:32;15.29;86.12
80579;SHT31;69939;52.402;6.608;2023-07-13T01:21:04;15.26;86.62
80579;SHT31;69939;52.402;6.608;2023-07-13T01:23:34;15.19;86.62
80579;SHT31;69939;52.402;6.608;2023-07-13T01:26:04;15.14;86.67
80579;SHT31;69939;52.402;6.608;2023-07-13T01:28:33;15.16;86.86
80579;SHT31;69939;52.402;6.608;2023-07-13T01:31:05;15.19;86.88
80579;SHT31;69939;52.402;6.608;2023-07-13T01:33:36;15.20;86.67
80579;SHT31;69939;52.402;6.608;2023-07-13T01:36:11;15.19;86.76
80579;SHT31;69939;52.402;6.608;2023-07-13T01:38:40;15.23;86.31
80579;SHT31;69939;52.402;6.608;2023-07-13T01:41:10;15.27;86.02
80579;SHT31;69939;52.402;6.608;2023-07-13T01:43:39;15.24;86.05
80579;SHT31;69939;52.402;6.608;2023-07-13T01:46:09;15.26;86.41
80579;SHT31;69939;52.402;6.608;2023-07-13T01:48:39;15.23;86.40
80579;SHT31;69939;52.402;6.608;2023-07-13T01:51:11;15.16;86.88
80579;SHT31;69939;52.402;6.608;2023-07-13T01:53:40;15.09;86.99
80579;SHT31;69939;52.402;6.608;2023-07-13T01:56:10;15.04;87.09
80579;SHT31;69939;52.402;6.608;2023-07-13T01:58:40;14.95;87.34
80579;SHT31;69939;52.402;6.608;2023-07-13T02:01:09;14.93;87.50
80579;SHT31;69939;52.402;6.608;2023-07-13T02:03:39;14.85;87.59
80579;SHT31;69939;52.402;6.608;2023-07-13T02:06:13;14.75;88.46
80579;SHT31;69939;52.402;6.608;2023-07-13T02:08:43;14.75;87.77
80579;SHT31;69939;52.402;6.608;2023-07-13T02:11:13;14.81;87.90
80579;SHT31;69939;52.402;6.608;2023-07-13T02:13:42;14.73;88.41
80579;SHT31;69939;52.402;6.608;2023-07-13T02:16:12;14.73;88.46
80579;SHT31;69939;52.402;6.608;2023-07-13T02:18:42;14.72;88.37
80579;SHT31;69939;52.402;6.608;2023-07-13T02:21:14;14.71;88.25
80579;SHT31;69939;52.402;6.608;2023-07-13T02:23:43;14.71;88.14
80579;SHT31;69939;52.402;6.608;2023-07-13T02:26:14;14.75;88.12
80579;SHT31;69939;52.402;6.608;2023-07-13T02:28:45;14.79;88.48
80579;SHT31;69939;52.402;6.608;2023-07-13T02:31:16;14.81;88.03
80579;SHT31;69939;52.402;6.608;2023-07-13T02:33:46;14.86;87.82
80579;SHT31;69939;52.402;6.608;2023-07-13T02:36:18;14.88;87.45
80579;SHT31;69939;52.402;6.608;2023-07-13T02:38:50;14.91;87.87
80579;SHT31;69939;52.402;6.608;2023-07-13T02:41:19;14.93;88.00
80579;SHT31;69939;52.402;6.608;2023-07-13T02:43:49;14.93;87.62
80579;SHT31;69939;52.402;6.608;2023-07-13T02:46:19;14.89;87.63
80579;SHT31;69939;52.402;6.608;2023-07-13T02:48:49;14.93;87.53
80579;SHT31;69939;52.402;6.608;2023-07-13T02:51:21;14.93;87.85
80579;SHT31;69939;52.402;6.608;2023-07-13T02:53:51;14.95;87.75
80579;SHT31;69939;52.402;6.608;2023-07-13T02:56:23;14.93;87.64
80579;SHT31;69939;52.402;6.608;2023-07-13T02:58:54;14.92;87.58
80579;SHT31;69939;52.402;6.608;2023-07-13T03:01:24;14.95;87.52
80579;SHT31;69939;52.402;6.608;2023-07-13T03:03:55;14.96;87.64
80579;SHT31;69939;52.402;6.608;2023-07-13T03:06:28;14.95;87.78
80579;SHT31;69939;52.402;6.608;2023-07-13T03:08:58;14.95;87.80
80579;SHT31;69939;52.402;6.608;2023-07-13T03:11:29;14.89;88.05
80579;SHT31;69939;52.402;6.608;2023-07-13T03:14:00;14.79;87.91
80579;SHT31;69939;52.402;6.608;2023-07-13T03:16:30;14.78;88.37
80579;SHT31;69939;52.402;6.608;2023-07-13T03:18:59;14.68;88.45
80579;SHT31;69939;52.402;6.608;2023-07-13T03:21:32;14.60;88.58
80579;SHT31;69939;52.402;6.608;2023-07-13T03:24:03;14.60;88.60
80579;SHT31;69939;52.402;6.608;2023-07-13T03:26:33;14.54;89.19
80579;SHT31;69939;52.402;6.608;2023-07-13T03:29:02;14.52;88.84
80579;SHT31;69939;52.402;6.608;2023-07-13T03:31:37;14.46;89.45
80579;SHT31;69939;52.402;6.608;2023-07-13T03:34:06;14.42;89.26
80579;SHT31;69939;52.402;6.608;2023-07-13T03:36:41;14.42;89.26
80579;SHT31;69939;52.402;6.608;2023-07-13T03:39:11;14.44;89.40
80579;SHT31;69939;52.402;6.608;2023-07-13T03:41:40;14.34;89.62
80579;SHT31;69939;52.402;6.608;2023-07-13T03:44:12;14.31;89.95
80579;SHT31;69939;52.402;6.608;2023-07-13T03:46:41;14.30;89.88
80579;SHT31;69939;52.402;6.608;2023-07-13T03:49:11;14.28;89.85
80579;SHT31;69939;52.402;6.608;2023-07-13T03:51:44;14.34;89.55
80579;SHT31;69939;52.402;6.608;2023-07-13T03:54:14;14.42;89.77
80579;SHT31;69939;52.402;6.608;2023-07-13T03:56:44;14.44;89.88
80579;SHT31;69939;52.402;6.608;2023-07-13T03:59:16;14.48;89.86
80579;SHT31;69939;52.402;6.608;2023-07-13T04:01:45;14.49;89.49
80579;SHT31;69939;52.402;6.608;2023-07-13T04:04:15;14.48;89.63
80579;SHT31;69939;52.402;6.608;2023-07-13T04:06:47;14.48;89.65
80579;SHT31;69939;52.402;6.608;2023-07-13T04:09:19;14.44;89.86
80579;SHT31;69939;52.402;6.608;2023-07-13T04:11:48;14.44;89.58
80579;SHT31;69939;52.402;6.608;2023-07-13T04:14:20;14.42;89.65
80579;SHT31;69939;52.402;6.608;2023-07-13T04:16:49;14.48;89.58
80579;SHT31;69939;52.402;6.608;2023-07-13T04:19:20;14.44;90.15
80579;SHT31;69939;52.402;6.608;2023-07-13T04:21:52;14.46;89.99
80579;SHT31;69939;52.402;6.608;2023-07-13T04:24:22;14.49;89.74
80579;SHT31;69939;52.402;6.608;2023-07-13T04:26:51;14.54;89.70
80579;SHT31;69939;52.402;6.608;2023-07-13T04:29:24;14.60;89.51
80579;SHT31;69939;52.402;6.608;2023-07-13T04:31:54;14.67;89.26
80579;SHT31;69939;52.402;6.608;2023-07-13T04:34:23;14.73;89.16
80579;SHT31;69939;52.402;6.608;2023-07-13T04:36:55;14.81;89.29
80579;SHT31;69939;52.402;6.608;2023-07-13T04:39:25;14.85;88.97
80579;SHT31;69939;52.402;6.608;2023-07-13T04:41:54;14.82;89.23
80579;SHT31;69939;52.402;6.608;2023-07-13T04:44:24;14.79;89.46
80579;SHT31;69939;52.402;6.608;2023-07-13T04:46:53;14.82;89.58
80579;SHT31;69939;52.402;6.608;2023-07-13T04:49:22;14.93;89.31
80579;SHT31;69939;52.402;6.608;2023-07-13T04:51:54;14.98;88.91
80579;SHT31;69939;52.402;6.608;2023-07-13T04:54:24;15.04;89.36
80579;SHT31;69939;52.402;6.608;2023-07-13T04:56:53;15.13;88.96
80579;SHT31;69939;52.402;6.608;2023-07-13T04:59:23;15.09;88.83
80579;SHT31;69939;52.402;6.608;2023-07-13T05:01:53;15.02;89.08
80579;SHT31;69939;52.402;6.608;2023-07-13T05:04:24;15.04;89.22
80579;SHT31;69939;52.402;6.608;2023-07-13T05:06:56;15.10;89.09
80579;SHT31;69939;52.402;6.608;2023-07-13T05:09:25;15.24;89.07
80579;SHT31;69939;52.402;6.608;2023-07-13T05:11:54;15.36;88.92
80579;SHT31;69939;52.402;6.608;2023-07-13T05:14:24;15.43;88.85
80579;SHT31;69939;52.402;6.608;2023-07-13T05:16:53;15.57;88.33
80579;SHT31;69939;52.402;6.608;2023-07-13T05:19:23;15.67;87.91
80579;SHT31;69939;52.402;6.608;2023-07-13T05:21:52;15.65;87.91
80579;SHT31;69939;52.402;6.608;2023-07-13T05:24:24;15.69;88.24
80579;SHT31;69939;52.402;6.608;2023-07-13T05:26:53;15.85;88.17
80579;SHT31;69939;52.402;6.608;2023-07-13T05:29:23;15.89;87.40
80579;SHT31;69939;52.402;6.608;2023-07-13T05:31:52;16.01;87.42
80579;SHT31;69939;52.402;6.608;2023-07-13T05:34:22;16.04;87.27
80579;SHT31;69939;52.402;6.608;2023-07-13T05:36:52;16.13;86.61
80579;SHT31;69939;52.402;6.608;2023-07-13T05:39:24;16.13;87.20
80579;SHT31;69939;52.402;6.608;2023-07-13T05:41:54;16.13;87.04
80579;SHT31;69939;52.402;6.608;2023-07-13T05:44:23;16.29;86.87
80579;SHT31;69939;52.402;6.608;2023-07-13T05:46:53;16.42;87.09
80579;SHT31;69939;52.402;6.608;2023-07-13T05:49:23;16.54;86.44
80579;SHT31;69939;52.402;6.608;2023-07-13T05:51:53;16.91;85.57
80579;SHT31;69939;52.402;6.608;2023-07-13T05:54:25;17.54;83.85
80579;SHT31;69939;52.402;6.608;2023-07-13T05:56:55;18.07;81.84
80579;SHT31;69939;52.402;6.608;2023-07-13T05:59:24;18.57;80.29
80579;SHT31;69939;52.402;6.608;2023-07-13T06:01:54;18.52;79.96
80579;SHT31;69939;52.402;6.608;2023-07-13T06:04:23;18.97;79.29
80579;SHT31;69939;52.402;6.608;2023-07-13T06:06:52;19.12;78.03
80579;SHT31;69939;52.402;6.608;2023-07-13T06:09:24;19.14;78.76
80579;SHT31;69939;52.402;6.608;2023-07-13T06:11:54;19.41;77.36
80579;SHT31;69939;52.402;6.608;2023-07-13T06:14:23;19.59;77.26
80579;SHT31;69939;52.402;6.608;2023-07-13T06:16:52;19.55;77.10
80579;SHT31;69939;52.402;6.608;2023-07-13T06:19:23;19.61;77.63
80579;SHT31;69939;52.402;6.608;2023-07-13T06:21:55;20.31;76.04
80579;SHT31;69939;52.402;6.608;2023-07-13T06:24:27;19.92;75.37
80579;SHT31;69939;52.402;6.608;2023-07-13T06:26:57;19.97;75.51
80579;SHT31;69939;52.402;6.608;2023-07-13T06:29:26;20.24;75.49
80579;SHT31;69939;52.402;6.608;2023-07-13T06:31:55;20.06;76.47
80579;SHT31;69939;52.402;6.608;2023-07-13T06:34:25;19.27;78.35
80579;SHT31;69939;52.402;6.608;2023-07-13T06:36:54;19.63;77.25
80579;SHT31;69939;52.402;6.608;2023-07-13T06:39:23;19.80;77.42
80579;SHT31;69939;52.402;6.608;2023-07-13T06:41:55;19.96;77.24
80579;SHT31;69939;52.402;6.608;2023-07-13T06:44:25;20.00;76.02
80579;SHT31;69939;52.402;6.608;2023-07-13T06:46:54;19.73;78.00
80579;SHT31;69939;52.402;6.608;2023-07-13T06:49:23;19.79;77.68
80579;SHT31;69939;52.402;6.608;2023-07-13T06:51:53;20.21;78.30
80579;SHT31;69939;52.402;6.608;2023-07-13T06:54:22;20.51;76.51
80579;SHT31;69939;52.402;6.608;2023-07-13T06:56:54;20.01;76.73
80579;SHT31;69939;52.402;6.608;2023-07-13T06:59:24;20.23;77.14
80579;SHT31;69939;52.402;6.608;2023-07-13T07:01:53;19.89;77.11
80579;SHT31;69939;52.402;6.608;2023-07-13T07:04:23;20.03;77.48
80579;SHT31;69939;52.402;6.608;2023-07-13T07:06:52;20.43;76.48
80579;SHT31;69939;52.402;6.608;2023-07-13T07:09:22;20.92;75.59
80579;SHT31;69939;52.402;6.608;2023-07-13T07:11:51;20.28;76.11
80579;SHT31;69939;52.402;6.608;2023-07-13T07:14:23;19.75;78.34
80579;SHT31;69939;52.402;6.608;2023-07-13T07:16:53;19.36;79.18
80579;SHT31;69939;52.402;6.608;2023-07-13T07:19:24;19.27;80.29
80579;SHT31;69939;52.402;6.608;2023-07-13T07:21:53;19.55;78.65
80579;SHT31;69939;52.402;6.608;2023-07-13T07:24:22;19.66;79.03
80579;SHT31;69939;52.402;6.608;2023-07-13T07:26:52;20.17;78.38
80579;SHT31;69939;52.402;6.608;2023-07-13T07:29:24;20.72;77.25
80579;SHT31;69939;52.402;6.608;2023-07-13T07:31:53;21.03;75.59
80579;SHT31;69939;52.402;6.608;2023-07-13T07:34:23;20.55;76.04
80579;SHT31;69939;52.402;6.608;2023-07-13T07:36:53;20.38;76.08
80579;SHT31;69939;52.402;6.608;2023-07-13T07:39:23;20.13;76.85
80579;SHT31;69939;52.402;6.608;2023-07-13T07:41:52;19.75;78.90
80579;SHT31;69939;52.402;6.608;2023-07-13T07:44:26;20.00;78.66
80579;SHT31;69939;52.402;6.608;2023-07-13T07:46:55;20.12;77.60
80579;SHT31;69939;52.402;6.608;2023-07-13T07:49:26;20.61;76.16
80579;SHT31;69939;52.402;6.608;2023-07-13T07:51:55;20.88;75.75
80579;SHT31;69939;52.402;6.608;2023-07-13T07:54:25;20.49;76.54
80579;SHT31;69939;52.402;6.608;2023-07-13T07:56:55;20.91;77.15
80579;SHT31;69939;52.402;6.608;2023-07-13T07:59:27;20.99;75.62
80579;SHT31;69939;52.402;6.608;2023-07-13T08:01:57;20.92;75.90
80579;SHT31;69939;52.402;6.608;2023-07-13T08:04:28;21.06;75.77
80579;SHT31;69939;52.402;6.608;2023-07-13T08:06:57;21.59;73.55
80579;SHT31;69939;52.402;6.608;2023-07-13T08:09:28;20.83;74.41
80579;SHT31;69939;52.402;6.608;2023-07-13T08:11:57;20.93;74.74
80579;SHT31;69939;52.402;6.608;2023-07-13T08:14:29;21.07;73.21
80579;SHT31;69939;52.402;6.608;2023-07-13T08:17:00;21.46;72.68
80579;SHT31;69939;52.402;6.608;2023-07-13T08:19:30;21.47;73.59
80579;SHT31;69939;52.402;6.608;2023-07-13T08:21:59;21.82;71.15
80579;SHT31;69939;52.402;6.608;2023-07-13T08:24:28;21.51;70.91
80579;SHT31;69939;52.402;6.608;2023-07-13T08:26:58;21.79;71.46
80579;SHT31;69939;52.402;6.608;2023-07-13T08:29:30;21.36;72.19
80579;SHT31;69939;52.402;6.608;2023-07-13T08:32:00;21.27;72.19
80579;SHT31;69939;52.402;6.608;2023-07-13T08:34:30;20.23;74.48
80579;SHT31;69939;52.402;6.608;2023-07-13T08:37:01;20.55;73.37
80579;SHT31;69939;52.402;6.608;2023-07-13T08:39:31;21.19;73.34
80579;SHT31;69939;52.402;6.608;2023-07-13T08:42:04;21.22;72.02
80579;SHT31;69939;52.402;6.608;2023-07-13T08:44:48;20.56;73.29
80579;SHT31;69939;52.402;6.608;2023-07-13T08:47:24;21.62;71.78
80579;SHT31;69939;52.402;6.608;2023-07-13T08:49:57;21.89;71.16
80579;SHT31;69939;52.402;6.608;2023-07-13T08:52:32;22.15;71.52
80579;SHT31;69939;52.402;6.608;2023-07-13T08:55:12;22.22;71.13
80579;SHT31;69939;52.402;6.608;2023-07-13T08:57:48;22.42;69.08
80579;SHT31;69939;52.402;6.608;2023-07-13T09:00:34;22.42;70.52
80579;SHT31;69939;52.402;6.608;2023-07-13T09:03:18;22.26;72.02
80579;SHT31;69939;52.402;6.608;2023-07-13T09:05:53;22.05;71.43
80579;SHT31;69939;52.402;6.608;2023-07-13T09:08:38;21.38;74.00
80579;SHT31;69939;52.402;6.608;2023-07-13T09:11:28;21.31;74.34
80579;SHT31;69939;52.402;6.608;2023-07-13T09:14:21;21.16;72.89
80579;SHT31;69939;52.402;6.608;2023-07-13T09:17:08;21.43;74.31
80579;SHT31;69939;52.402;6.608;2023-07-13T09:19:43;21.10;74.54
80579;SHT31;69939;52.402;6.608;2023-07-13T09:22:20;20.33;75.93
80579;SHT31;69939;52.402;6.608;2023-07-13T09:25:01;19.82;76.57
80579;SHT31;69939;52.402;6.608;2023-07-13T09:27:38;20.18;77.65
80579;SHT31;69939;52.402;6.608;2023-07-13T09:30:30;20.47;75.41
80579;SHT31;69939;52.402;6.608;2023-07-13T09:33:07;20.85;75.27
80579;SHT31;69939;52.402;6.608;2023-07-13T09:35:38;21.38;73.78
80579;SHT31;69939;52.402;6.608;2023-07-13T09:38:12;21.37;74.01
80579;SHT31;69939;52.402;6.608;2023-07-13T09:40:55;21.03;74.23
80579;SHT31;69939;52.402;6.608;2023-07-13T09:43:29;21.26;74.36
80579;SHT31;69939;52.402;6.608;2023-07-13T09:45:59;21.89;73.38
80579;SHT31;69939;52.402;6.608;2023-07-13T09:48:36;22.36;72.37
80579;SHT31;69939;52.402;6.608;2023-07-13T09:51:13;22.91;71.22
80579;SHT31;69939;52.402;6.608;2023-07-13T09:53:43;22.81;69.16
80579;SHT31;69939;52.402;6.608;2023-07-13T09:56:20;22.94;70.08
80579;SHT31;69939;52.402;6.608;2023-07-13T09:58:50;22.12;69.87
80579;SHT31;69939;52.402;6.608;2023-07-13T10:01:32;21.20;72.21
80579;SHT31;69939;52.402;6.608;2023-07-13T10:04:10;20.67;74.02
80579;SHT31;69939;52.402;6.608;2023-07-13T10:06:41;20.01;75.10
80579;SHT31;69939;52.402;6.608;2023-07-13T10:09:15;19.34;78.79
80579;SHT31;69939;52.402;6.608;2023-07-13T10:11:50;19.01;80.98
80579;SHT31;69939;52.402;6.608;2023-07-13T10:14:21;18.80;82.21
80579;SHT31;69939;52.402;6.608;2023-07-13T10:17:02;18.51;82.84
80579;SHT31;69939;52.402;6.608;2023-07-13T10:19:38;18.72;82.62
80579;SHT31;69939;52.402;6.608;2023-07-13T10:22:25;19.17;81.80
80579;SHT31;69939;52.402;6.608;2023-07-13T10:24:59;19.45;80.66
80579;SHT31;69939;52.402;6.608;2023-07-13T10:27:33;19.34;78.36
80579;SHT31;69939;52.402;6.608;2023-07-13T10:30:12;19.28;79.26
80579;SHT31;69939;52.402;6.608;2023-07-13T10:32:45;18.99;81.13
80579;SHT31;69939;52.402;6.608;2023-07-13T10:35:21;18.66;82.22
80579;SHT31;69939;52.402;6.608;2023-07-13T10:37:55;18.66;83.90
80579;SHT31;69939;52.402;6.608;2023-07-13T10:40:35;18.18;89.65
80579;SHT31;69939;52.402;6.608;2023-07-13T10:43:14;17.32;89.30
80579;SHT31;69939;52.402;6.608;2023-07-13T10:45:49;17.22;92.02
80579;SHT31;69939;52.402;6.608;2023-07-13T10:48:21;17.16;91.72
80579;SHT31;69939;52.402;6.608;2023-07-13T10:50:55;17.32;91.75
80579;SHT31;69939;52.402;6.608;2023-07-13T10:53:29;17.42;91.72
80579;SHT31;69939;52.402;6.608;2023-07-13T10:56:01;17.74;90.85
80579;SHT31;69939;52.402;6.608;2023-07-13T10:58:35;18.74;89.14
80579;SHT31;69939;52.402;6.608;2023-07-13T11:01:09;19.39;86.06
80579;SHT31;69939;52.402;6.608;2023-07-13T11:03:49;19.17;82.72
80579;SHT31;69939;52.402;6.608;2023-07-13T11:06:34;19.77;85.66
80579;SHT31;69939;52.402;6.608;2023-07-13T11:09:31;19.82;80.77
80579;SHT31;69939;52.402;6.608;2023-07-13T11:12:27;20.17;78.34
80579;SHT31;69939;52.402;6.608;2023-07-13T11:15:31;20.73;79.49
80579;SHT31;69939;52.402;6.608;2023-07-13T11:18:23;21.00;76.71
80579;SHT31;69939;52.402;6.608;2023-07-13T11:21:13;20.79;74.88
80579;SHT31;69939;52.402;6.608;2023-07-13T11:23:53;20.21;72.86
80579;SHT31;69939;52.402;6.608;2023-07-13T11:26:41;20.28;75.05
80579;SHT31;69939;52.402;6.608;2023-07-13T11:29:24;20.71;74.86
80579;SHT31;69939;52.402;6.608;2023-07-13T11:32:22;21.10;72.48
80579;SHT31;69939;52.402;6.608;2023-07-13T11:34:55;21.54;71.55
80579;SHT31;69939;52.402;6.608;2023-07-13T11:37:26;21.33;76.90
80579;SHT31;69939;52.402;6.608;2023-07-13T11:40:00;20.88;75.36
80579;SHT31;69939;52.402;6.608;2023-07-13T11:42:30;20.67;79.46
80579;SHT31;69939;52.402;6.608;2023-07-13T11:45:00;20.59;78.16
80579;SHT31;69939;52.402;6.608;2023-07-13T11:47:30;20.58;78.17
80579;SHT31;69939;52.402;6.608;2023-07-13T11:49:59;20.47;77.58
80579;SHT31;69939;52.402;6.608;2023-07-13T11:52:37;20.72;76.69
80579;SHT31;69939;52.402;6.608;2023-07-13T11:55:14;20.75;76.43
80579;SHT31;69939;52.402;6.608;2023-07-13T11:57:50;20.52;76.88
80579;SHT31;69939;52.402;6.608;2023-07-13T12:00:27;20.35;76.99
80579;SHT31;69939;52.402;6.608;2023-07-13T12:03:00;20.47;78.34
80579;SHT31;69939;52.402;6.608;2023-07-13T12:05:32;20.79;79.78
80579;SHT31;69939;52.402;6.608;2023-07-13T12:08:09;21.30;76.04
80579;SHT31;69939;52.402;6.608;2023-07-13T12:10:42;22.44;74.21
80579;SHT31;69939;52.402;6.608;2023-07-13T12:13:13;22.20;71.90
80579;SHT31;69939;52.402;6.608;2023-07-13T12:15:45;21.06;69.65
80579;SHT31;69939;52.402;6.608;2023-07-13T12:18:19;19.69;73.95
80579;SHT31;69939;52.402;6.608;2023-07-13T12:20:51;18.38;78.23
80579;SHT31;69939;52.402;6.608;2023-07-13T12:23:26;17.66;84.60
80579;SHT31;69939;52.402;6.608;2023-07-13T12:26:04;16.87;86.78
80579;SHT31;69939;52.402;6.608;2023-07-13T12:28:40;16.57;89.01
80579;SHT31;69939;52.402;6.608;2023-07-13T12:31:25;16.36;89.11
80579;SHT31;69939;52.402;6.608;2023-07-13T12:34:01;16.22;87.81
80579;SHT31;69939;52.402;6.608;2023-07-13T12:36:33;16.50;90.96
80579;SHT31;69939;52.402;6.608;2023-07-13T12:39:12;16.59;90.80
80579;SHT31;69939;52.402;6.608;2023-07-13T12:41:47;16.63;90.77
80579;SHT31;69939;52.402;6.608;2023-07-13T12:44:20;16.37;89.77
80579;SHT31;69939;52.402;6.608;2023-07-13T12:46:57;16.22;91.67
80579;SHT31;69939;52.402;6.608;2023-07-13T12:49:31;16.10;94.37
80579;SHT31;69939;52.402;6.608;2023-07-13T12:52:04;16.10;93.91
80579;SHT31;69939;52.402;6.608;2023-07-13T12:54:53;16.08;95.02
80579;SHT31;69939;52.402;6.608;2023-07-13T12:57:26;16.02;92.97
80579;SHT31;69939;52.402;6.608;2023-07-13T12:59:56;16.04;94.61
80579;SHT31;69939;52.402;6.608;2023-07-13T13:02:29;16.10;93.69
80579;SHT31;69939;52.402;6.608;2023-07-13T13:05:02;16.39;96.81
80579;SHT31;69939;52.402;6.608;2023-07-13T13:07:33;16.68;95.84
80579;SHT31;69939;52.402;6.608;2023-07-13T13:10:04;17.78;95.20
80579;SHT31;69939;52.402;6.608;2023-07-13T13:12:43;19.42;91.70
80579;SHT31;69939;52.402;6.608;2023-07-13T13:15:19;20.34;90.14
80579;SHT31;69939;52.402;6.608;2023-07-13T13:17:49;20.73;84.24
80579;SHT31;69939;52.402;6.608;2023-07-13T13:20:20;21.03;83.32
80579;SHT31;69939;52.402;6.608;2023-07-13T13:22:51;21.69;82.99
80579;SHT31;69939;52.402;6.608;2023-07-13T13:25:20;22.09;82.08
80579;SHT31;69939;52.402;6.608;2023-07-13T13:27:53;22.20;80.98
80579;SHT31;69939;52.402;6.608;2023-07-13T13:30:22;22.65;81.15
80579;SHT31;69939;52.402;6.608;2023-07-13T13:32:52;23.45;79.17
80579;SHT31;69939;52.402;6.608;2023-07-13T13:35:21;23.47;74.85
80579;SHT31;69939;52.402;6.608;2023-07-13T13:37:52;23.56;79.23
80579;SHT31;69939;52.402;6.608;2023-07-13T13:40:22;23.42;74.42
80579;SHT31;69939;52.402;6.608;2023-07-13T13:42:55;23.46;74.09
80579;SHT31;69939;52.402;6.608;2023-07-13T13:45:24;22.08;72.48
80579;SHT31;69939;52.402;6.608;2023-07-13T13:47:54;21.09;76.40
80579;SHT31;69939;52.402;6.608;2023-07-13T13:50:24;20.89;80.10
80579;SHT31;69939;52.402;6.608;2023-07-13T13:52:53;20.79;79.14
80579;SHT31;69939;52.402;6.608;2023-07-13T13:55:23;20.41;80.56
80579;SHT31;69939;52.402;6.608;2023-07-13T13:57:55;20.10;81.92
80579;SHT31;69939;52.402;6.608;2023-07-13T14:00:24;19.18;83.07
80579;SHT31;69939;52.402;6.608;2023-07-13T14:02:54;17.69;88.67
80579;SHT31;69939;52.402;6.608;2023-07-13T14:05:25;17.36;88.04
80579;SHT31;69939;52.402;6.608;2023-07-13T14:07:56;17.43;89.97
80579;SHT31;69939;52.402;6.608;2023-07-13T14:10:25;17.65;91.07
80579;SHT31;69939;52.402;6.608;2023-07-13T14:12:58;17.91;88.92
80579;SHT31;69939;52.402;6.608;2023-07-13T14:15:28;18.45;89.90
80579;SHT31;69939;52.402;6.608;2023-07-13T14:17:59;19.12;88.73
80579;SHT31;69939;52.402;6.608;2023-07-13T14:20:29;19.66;86.84
80579;SHT31;69939;52.402;6.608;2023-07-13T14:22:58;20.96;84.01
80579;SHT31;69939;52.402;6.608;2023-07-13T14:25:27;21.46;81.91
80579;SHT31;69939;52.402;6.608;2023-07-13T14:28:00;21.41;79.26
80579;SHT31;69939;52.402;6.608;2023-07-13T14:30:38;21.23;83.39
80579;SHT31;69939;52.402;6.608;2023-07-13T14:33:08;20.99;82.79
80579;SHT31;69939;52.402;6.608;2023-07-13T14:35:38;20.76;83.60
80579;SHT31;69939;52.402;6.608;2023-07-13T14:38:10;20.64;83.14
80579;SHT31;69939;52.402;6.608;2023-07-13T14:40:42;20.52;84.89
80579;SHT31;69939;52.402;6.608;2023-07-13T14:43:16;20.47;86.22
80579;SHT31;69939;52.402;6.608;2023-07-13T14:45:48;20.54;84.60
80579;SHT31;69939;52.402;6.608;2023-07-13T14:48:22;20.62;85.73
80579;SHT31;69939;52.402;6.608;2023-07-13T14:50:56;21.82;82.99
80579;SHT31;69939;52.402;6.608;2023-07-13T14:53:27;22.60;76.45
80579;SHT31;69939;52.402;6.608;2023-07-13T14:55:56;21.79;76.57
80579;SHT31;69939;52.402;6.608;2023-07-13T14:58:28;21.13;77.52
80579;SHT31;69939;52.402;6.608;2023-07-13T15:00:58;21.04;79.06
80579;SHT31;69939;52.402;6.608;2023-07-13T15:03:27;21.11;79.51
80579;SHT31;69939;52.402;6.608;2023-07-13T15:05:57;21.10;78.52
80579;SHT31;69939;52.402;6.608;2023-07-13T15:08:28;21.36;76.40
80579;SHT31;69939;52.402;6.608;2023-07-13T15:10:58;21.77;71.80
80579;SHT31;69939;52.402;6.608;2023-07-13T15:13:32;21.47;74.79
80579;SHT31;69939;52.402;6.608;2023-07-13T15:16:03;21.16;75.35
80579;SHT31;69939;52.402;6.608;2023-07-13T15:18:33;21.10;70.40
80579;SHT31;69939;52.402;6.608;2023-07-13T15:21:03;21.02;74.02
80579;SHT31;69939;52.402;6.608;2023-07-13T15:23:33;21.73;73.15
80579;SHT31;69939;52.402;6.608;2023-07-13T15:26:02;22.43;68.33
80579;SHT31;69939;52.402;6.608;2023-07-13T15:28:34;23.09;68.81
80579;SHT31;69939;52.402;6.608;2023-07-13T15:31:15;23.59;66.08
80579;SHT31;69939;52.402;6.608;2023-07-13T15:33:48;23.26;66.14
80579;SHT31;69939;52.402;6.608;2023-07-13T15:36:19;23.50;66.73
80579;SHT31;69939;52.402;6.608;2023-07-13T15:38:53;22.98;65.98
80579;SHT31;69939;52.402;6.608;2023-07-13T15:41:26;22.63;67.72
80579;SHT31;69939;52.402;6.608;2023-07-13T15:44:00;21.82;68.15
80579;SHT31;69939;52.402;6.608;2023-07-13T15:46:48;21.53;69.12
80579;SHT31;69939;52.402;6.608;2023-07-13T15:49:18;21.30;73.40
80579;SHT31;69939;52.402;6.608;2023-07-13T15:51:48;20.92;73.36
80579;SHT31;69939;52.402;6.608;2023-07-13T15:54:19;20.59;75.00
80579;SHT31;69939;52.402;6.608;2023-07-13T15:56:52;20.65;76.21
80579;SHT31;69939;52.402;6.608;2023-07-13T15:59:26;20.55;73.93
80579;SHT31;69939;52.402;6.608;2023-07-13T16:01:56;20.48;71.86
80579;SHT31;69939;52.402;6.608;2023-07-13T16:04:26;20.81;70.06
80579;SHT31;69939;52.402;6.608;2023-07-13T16:06:56;21.03;70.82